Terminal Aerodrome Forecast
Issued by NWS

Home | Current Version | Previous Version | Text Only | Print | Product List | Glossary On
Versions: 1 2 3 4 5 6 7 8 9 10 11 12 13 14 15 16 17 18 19 20 21 22 23 24 25 26 27 28 29 30 31 32 33 34 35 36 37 38 39 40 41 42 43 44 45 46 47 48 49 50
000
FTUS44 KHGX 210310 AAB
TAFIAH
TAF AMD
KIAH 210310Z 2103/2206 16009KT P6SM -TSRA FEW004 BKN035CB OVC050
      TEMPO 2103/2106 4SM TSRA BR BKN015 OVC025CB
     FM210700 18003KT 4SM BR VCSH OVC008
     FM210900 21003KT 1SM BR OVC004
     FM211500 23005KT 4SM BR BKN010 OVC015
     FM211700 24010KT P6SM SCT030 SCT150
     FM220100 22006KT P6SM FEW020=

USA.gov is the U.S. government's official web portal to all federal, state and local government web resources and services.